AirNav   Everest Fuels
 
 1545 users online  

0NE4 Franklin County Memorial Hospital Heliport
Franklin, Nebraska, USA

GOING TO FRANKLIN?


FAA INFORMATION EFFECTIVE 05 DECEMBER 2019

Location

FAA Identifier: 0NE4
Lat/Long: 40-06-09.2700N 098-57-15.5300W
40-06.154500N 098-57.258833W
40.1025750,-98.9543139
(estimated)
Elevation: 1950 ft. / 594 m (estimated)
Variation: 08E (1985)
From city: 1 mile N of FRANKLIN, NE
Time zone: UTC -6 (UTC -5 during Daylight Saving Time)
Zip code: 68939

Heliport Operations

Heliport use: Private use, MEDICAL USE.
Activation date: 06/1991
Control tower: no
ARTCC: MINNEAPOLIS CENTER
FSS: COLUMBUS FLIGHT SERVICE STATION
Attendance: CONTINUOUS
Wind indicator: lighted
Segmented circle: no
Lights: FOR FLOOD LGTS CALL 308-425-6221.

Nearby radio navigation aids

VOR radial/distance  VOR name  Freq  Var
TKOr289/36.5MANKATO VORTAC109.8010E
EARr171/(37.5)KEARNEY VOR111.2005E
HSIr212/38.5HASTINGS VOR/DME108.8007E

Heliport Services

Runway Information

Helipad H1

Dimensions: 30 x 30 ft. / 9 x 9 m
Surface: concrete
Runway edge lights: FLD
Latitude: 40-06.154500N
Longitude: 098-57.258833W
Elevation: 1950.0 ft.
Traffic pattern: leftleft

Heliport Ownership and Management from official FAA records

Ownership: Publicly-owned
Owner: FRANKLIN CO. MEMORIAL HOSP.
1406 Q STREET
FRANKLIN, NE 68939-0127
Phone 308-425-6221
Manager: THERESA RIZZO
1406 Q STREET
FRANKLIN, NE 68939-0127
Phone (308) 470-0641

Additional Remarks

OWNER DESIRES HELIPAD NOT BE CHARTED.
FOR CD CTC MINNEAPOLIS ARTCC AT 651-463-5588.

Instrument Procedures

There are no published instrument procedures at 0NE4.

Some nearby airports with instrument procedures:

4D9 - Alma Municipal Airport (18 nm W)
7V7 - Red Cloud Municipal Airport (19 nm E)
K82 - Smith Center Municipal Airport (22 nm S)
0V3 - Pioneer Village Field Airport (25 nm N)
KHDE - Brewster Field Airport (27 nm NW)
 
Loc | Ops | Rwys | IFR | FBO | Links
Com | Nav | Svcs | Stats | Notes

Silverhawk Aviation, Inc.
AirBoss

 
Area around 0NE4 (Franklin County Memorial Hospital Heliport)
 
Road maps at: MapQuest Bing Google
 
Aerial photo
No photo
 
Sectional chart

 
Airport distance calculator
Flying to Franklin County Memorial Hospital Heliport? Find the distance to fly.

From to 0NE4

Sunrise and sunset
Times for 05-Dec-2019
 Local
(UTC-6)
 Zulu
(UTC)
Morning civil twilight07:1313:13
Sunrise07:4413:44
Sunset17:0923:09
Evening civil twilight17:4023:40

Current date and time
Zulu (UTC)  05-Dec-2019 18:52:42
Local (UTC-6)  05-Dec-2019 12:52:42
 
METAR
KHDE 
27nm NW 
051835Z AUTO 33008KT 10SM CLR 08/03 A2987 RMK AO2 T00800026
KEAR 
37nm N 
051756Z AUTO 31008KT 10SM 08/01 A2989 RMK AO2 SLP132 T00780006 10083 21028 50005 $
KHSI 
38nm NE 
051753Z AUTO VRB04KT 10SM CLR 12/02 A2987 RMK AO2 SLP124 T01170022 10117 21011 50001
TAF
KEAR 
37nm N 
051720Z 0518/0618 33008KT P6SM FEW200 FM052000 36012KT P6SM BKN150 FM060200 36017KT P6SM OVC008 FM061500 VRB05KT P6SM BKN015
NOTAMs
Click for the latest NOTAMs
NOTAMs are issued by the DoD/FAA and will open in a separate window not controlled by AirNav.

 

 
 

Would you like to see your business listed on this page?

 If your business provides an interesting product or service to pilots, flight crews, aircraft, or users of the Franklin County Memorial Hospital Heliport, you should consider listing it here.  To start the listing process, click on the button below
 
Add a business
 

Other Pages about Franklin County Memorial Hospital Heliport

Update a link
 
Copyright © AirNav, LLC. All rights reserved. Privacy Policy  Contact